Time;durP1;ratioP1;P1;durP2;ratioP2;P2;SDS_P1;SDS_P2;PMS_P1;PMS_P2;Temp;Humidity;BMP_temperature;BMP_pressure;BME280_temperature;BME280_humidity;BME280_pressure;Samples;Min_cycle;Max_cycle;Signal;HPM_P1;HPM_P2
2023/09/07 00:02:00;;;;;;;5.70;4.90;;;;;;;14.57;85.11;101480.17;108951;277;38151;-71
2023/09/07 00:04:35;;;;;;;6.70;4.90;;;;;;;14.56;84.98;101483.19;108903;277;38320;-71
2023/09/07 00:07:10;;;;;;;7.10;4.10;;;;;;;14.54;84.84;101485.70;108955;277;38257;-71
2023/09/07 00:09:43;;;;;;;7.90;4.80;;;;;;;14.54;84.77;101487.85;108927;277;38251;-72
2023/09/07 00:12:17;;;;;;;6.10;5.10;;;;;;;14.53;85.00;101491.20;108957;277;39662;-71
2023/09/07 00:14:51;;;;;;;6.70;4.70;;;;;;;14.51;85.04;101490.39;108936;276;38300;-70
2023/09/07 00:17:26;;;;;;;5.90;4.20;;;;;;;14.49;85.14;101489.75;108910;277;39360;-72
2023/09/07 00:20:00;;;;;;;6.60;4.30;;;;;;;14.46;85.08;101488.97;108911;277;38262;-72
2023/09/07 00:22:34;;;;;;;6.10;4.80;;;;;;;14.44;85.12;101487.81;109021;276;38501;-72
2023/09/07 00:25:11;;;;;;;6.40;5.30;;;;;;;14.43;85.33;101489.43;108899;277;39342;-71
2023/09/07 00:27:45;;;;;;;6.10;5.00;;;;;;;14.40;84.97;101487.92;108952;277;38992;-71
2023/09/07 00:30:20;;;;;;;7.00;5.30;;;;;;;14.38;84.97;101484.84;108947;277;39333;-72
2023/09/07 00:32:54;;;;;;;6.10;4.50;;;;;;;14.36;84.97;101485.45;108948;277;38226;-71
2023/09/07 00:35:28;;;;;;;6.70;5.00;;;;;;;14.36;85.22;101486.69;108885;277;38176;-72
2023/09/07 00:38:01;;;;;;;10.50;5.00;;;;;;;14.34;85.39;101487.80;108954;277;38713;-73
2023/09/07 00:40:35;;;;;;;5.20;4.60;;;;;;;14.33;85.33;101488.90;108914;277;39517;-72
2023/09/07 00:43:10;;;;;;;6.00;4.60;;;;;;;14.31;85.31;101486.15;108910;277;38221;-70
2023/09/07 00:45:43;;;;;;;7.30;4.20;;;;;;;14.30;85.55;101485.52;108947;276;38755;-72
2023/09/07 00:48:17;;;;;;;6.80;4.70;;;;;;;14.29;85.58;101486.24;108952;277;38848;-71
2023/09/07 00:50:51;;;;;;;6.60;5.00;;;;;;;14.29;85.64;101487.99;108910;276;38331;-71
2023/09/07 00:53:25;;;;;;;6.30;5.10;;;;;;;14.29;85.42;101491.85;108957;277;39576;-71
2023/09/07 00:56:00;;;;;;;7.90;4.80;;;;;;;14.27;85.52;101488.76;108957;277;38505;-71
2023/09/07 00:58:34;;;;;;;6.40;4.60;;;;;;;14.23;85.09;101489.81;108904;277;39414;-71
2023/09/07 01:01:08;;;;;;;7.90;4.30;;;;;;;14.13;85.08;101491.52;108925;277;38722;-72
2023/09/07 01:03:42;;;;;;;8.00;5.00;;;;;;;14.07;85.24;101487.36;108954;277;39021;-72
2023/09/07 01:06:19;;;;;;;9.40;4.80;;;;;;;14.04;85.34;101490.14;108977;277;40132;-70
2023/09/07 01:08:56;;;;;;;6.60;4.90;;;;;;;14.01;85.42;101487.05;108900;277;38424;-70
2023/09/07 01:11:36;;;;;;;7.00;4.40;;;;;;;14.01;85.68;101490.22;108908;277;39483;-70
2023/09/07 01:14:10;;;;;;;6.10;4.80;;;;;;;14.01;85.52;101493.04;109014;277;39583;-71
2023/09/07 01:16:44;;;;;;;6.80;5.00;;;;;;;14.01;85.25;101498.64;108920;277;39307;-72
2023/09/07 01:19:18;;;;;;;6.50;5.40;;;;;;;13.95;85.08;101497.95;108917;277;38292;-72
2023/09/07 01:21:52;;;;;;;6.10;5.20;;;;;;;13.91;85.11;101501.94;108980;277;38138;-70
2023/09/07 01:24:26;;;;;;;6.00;4.90;;;;;;;13.90;85.33;101504.08;108936;277;38363;-70
2023/09/07 01:27:00;;;;;;;7.20;4.70;;;;;;;13.88;85.12;101503.81;108980;277;39281;-71
2023/09/07 01:29:34;;;;;;;6.90;5.40;;;;;;;13.84;85.36;101500.95;108927;277;39139;-71
2023/09/07 01:32:09;;;;;;;7.20;5.70;;;;;;;13.83;85.67;101501.15;108926;277;38258;-72
2023/09/07 01:34:44;;;;;;;6.30;5.00;;;;;;;13.81;85.52;101499.14;108928;277;39469;-72
2023/09/07 01:37:17;;;;;;;7.30;5.00;;;;;;;13.78;85.63;101499.41;109025;277;40119;-72
2023/09/07 01:39:51;;;;;;;6.30;5.30;;;;;;;13.78;85.56;101505.19;108811;277;188278;-72
2023/09/07 01:42:25;;;;;;;6.20;5.20;;;;;;;13.75;85.18;101503.38;108951;277;39595;-70
2023/09/07 01:44:59;;;;;;;7.10;5.10;;;;;;;13.66;85.35;101505.75;108919;277;38385;-70
2023/09/07 01:47:33;;;;;;;7.60;5.10;;;;;;;13.65;85.60;101504.39;108958;277;38673;-73
2023/09/07 01:50:10;;;;;;;6.60;4.80;;;;;;;13.65;86.04;101506.33;108919;277;39757;-72
2023/09/07 01:52:46;;;;;;;7.00;5.60;;;;;;;13.64;86.03;101507.40;108980;277;38304;-72
2023/09/07 01:55:20;;;;;;;7.20;5.80;;;;;;;13.61;85.85;101504.86;108910;277;39396;-72
2023/09/07 01:57:54;;;;;;;6.30;5.80;;;;;;;13.59;86.02;101503.87;108931;277;39695;-72
2023/09/07 02:00:28;;;;;;;7.80;5.70;;;;;;;13.57;86.06;101500.09;108957;277;38716;-72
2023/09/07 02:03:02;;;;;;;8.10;5.60;;;;;;;13.55;86.05;101501.38;108946;277;39723;-70
2023/09/07 02:05:36;;;;;;;7.30;5.60;;;;;;;13.55;86.31;101499.98;108950;277;38443;-70
2023/09/07 02:08:10;;;;;;;7.00;6.30;;;;;;;13.54;86.38;101501.26;108901;276;39999;-71
2023/09/07 02:10:44;;;;;;;7.70;6.20;;;;;;;13.53;86.43;101501.45;108986;277;39440;-72
2023/09/07 02:13:18;;;;;;;8.10;5.40;;;;;;;13.52;86.18;101500.80;108877;277;38301;-70
2023/09/07 02:15:51;;;;;;;7.20;5.20;;;;;;;13.52;86.25;101499.20;108938;277;38180;-72
2023/09/07 02:18:27;;;;;;;6.90;5.60;;;;;;;13.52;86.56;101499.53;108893;277;39514;-73
2023/09/07 02:21:04;;;;;;;7.10;5.40;;;;;;;13.53;86.85;101496.55;108823;277;175121;-72
2023/09/07 02:23:39;;;;;;;9.00;5.70;;;;;;;13.52;86.57;101498.35;108926;277;38362;-73
2023/09/07 02:26:12;;;;;;;6.90;5.90;;;;;;;13.50;86.93;101498.59;108923;277;38306;-72
2023/09/07 02:28:46;;;;;;;8.30;5.40;;;;;;;13.49;86.56;101501.93;108963;277;39275;-71
2023/09/07 02:31:20;;;;;;;6.60;5.60;;;;;;;13.48;86.23;101506.88;108964;277;38321;-71
2023/09/07 02:33:54;;;;;;;7.30;6.00;;;;;;;13.44;86.09;101505.60;108964;277;38520;-71
2023/09/07 02:36:29;;;;;;;9.60;6.00;;;;;;;13.43;86.49;101506.67;108981;277;40040;-71
2023/09/07 02:39:03;;;;;;;8.60;6.10;;;;;;;13.41;86.66;101506.38;108908;277;38497;-71
2023/09/07 02:41:37;;;;;;;6.10;5.50;;;;;;;13.40;86.70;101510.98;108954;277;38244;-70
2023/09/07 02:44:11;;;;;;;7.80;5.90;;;;;;;13.38;86.62;101505.77;108926;277;38501;-72
2023/09/07 02:46:46;;;;;;;7.70;6.40;;;;;;;13.35;86.63;101505.50;108906;275;38506;-70
2023/09/07 02:49:20;;;;;;;9.80;6.20;;;;;;;13.34;86.88;101512.40;108899;278;38327;-70
2023/09/07 02:51:54;;;;;;;8.60;6.10;;;;;;;13.32;86.88;101509.30;108920;278;38171;-70
2023/09/07 02:54:29;;;;;;;8.40;5.80;;;;;;;13.29;86.86;101516.24;108871;278;38496;-69
2023/09/07 02:57:03;;;;;;;6.60;5.90;;;;;;;13.27;86.72;101517.52;108882;278;38835;-70
2023/09/07 02:59:38;;;;;;;6.90;5.90;;;;;;;13.28;86.79;101521.36;108794;278;175146;-71
2023/09/07 03:02:14;;;;;;;7.40;5.90;;;;;;;13.25;86.83;101518.97;108979;278;39682;-70
2023/09/07 03:04:48;;;;;;;8.50;5.90;;;;;;;13.18;86.45;101513.75;108939;278;38214;-70
2023/09/07 03:07:23;;;;;;;9.50;5.90;;;;;;;13.14;86.64;101513.67;108922;278;38320;-70
2023/09/07 03:09:57;;;;;;;8.60;6.10;;;;;;;13.13;86.84;101513.01;108864;278;38176;-70
2023/09/07 03:12:32;;;;;;;6.70;5.40;;;;;;;13.13;86.91;101519.50;108880;278;38440;-72
2023/09/07 03:15:09;;;;;;;7.20;5.90;;;;;;;13.12;87.03;101520.39;108888;278;38142;-71
2023/09/07 03:17:43;;;;;;;6.50;5.80;;;;;;;13.10;86.80;101519.73;108917;278;38248;-71
2023/09/07 03:20:19;;;;;;;5.90;5.30;;;;;;;13.04;86.50;101519.59;108883;278;38160;-71
2023/09/07 03:22:52;;;;;;;6.30;5.50;;;;;;;13.01;86.70;101520.38;108897;278;38374;-70
2023/09/07 03:25:27;;;;;;;5.80;5.10;;;;;;;12.99;86.98;101520.80;108929;278;39322;-72
2023/09/07 03:28:01;;;;;;;8.10;6.00;;;;;;;12.97;86.89;101522.08;108964;278;38935;-71
2023/09/07 03:30:35;;;;;;;6.30;5.00;;;;;;;12.95;86.90;101523.02;108934;278;39056;-71
2023/09/07 03:33:09;;;;;;;6.70;5.70;;;;;;;12.91;86.94;101521.71;108873;278;39721;-70
2023/09/07 03:35:44;;;;;;;7.10;4.90;;;;;;;12.89;87.35;101521.07;108954;278;40182;-71
2023/09/07 03:38:18;;;;;;;6.40;5.70;;;;;;;12.89;87.38;101525.62;108919;278;38340;-70
2023/09/07 03:40:52;;;;;;;8.30;4.70;;;;;;;12.88;87.27;101521.80;108938;278;38229;-70
2023/09/07 03:43:26;;;;;;;6.30;5.70;;;;;;;12.87;87.34;101523.73;108879;278;39715;-70
2023/09/07 03:46:01;;;;;;;7.30;5.40;;;;;;;12.86;87.30;101525.72;108967;278;38329;-71
2023/09/07 03:48:36;;;;;;;6.70;5.20;;;;;;;12.84;87.43;101524.21;108932;278;39692;-70
2023/09/07 03:51:10;;;;;;;8.00;5.40;;;;;;;12.83;87.22;101523.34;108911;278;38729;-72
2023/09/07 03:53:45;;;;;;;6.30;5.60;;;;;;;12.82;86.98;101524.97;108915;278;39804;-72
2023/09/07 03:56:19;;;;;;;6.60;5.90;;;;;;;12.82;87.44;101527.05;108880;278;38428;-70
2023/09/07 03:58:53;;;;;;;7.50;6.20;;;;;;;12.81;87.55;101526.20;108935;278;38287;-72
2023/09/07 04:01:27;;;;;;;7.50;6.00;;;;;;;12.81;87.65;101528.67;108926;278;38198;-71
2023/09/07 04:04:01;;;;;;;7.30;5.70;;;;;;;12.80;87.60;101531.66;108894;278;38153;-70
2023/09/07 04:06:35;;;;;;;7.40;5.90;;;;;;;12.82;87.73;101532.34;108930;278;38227;-71
2023/09/07 04:09:09;;;;;;;7.50;6.00;;;;;;;12.83;87.97;101532.63;108905;278;38579;-70
2023/09/07 04:11:43;;;;;;;9.80;6.80;;;;;;;12.85;87.90;101530.83;108904;278;38484;-70
2023/09/07 04:14:17;;;;;;;9.00;7.40;;;;;;;12.86;87.82;101535.69;108876;278;38579;-70
2023/09/07 04:16:51;;;;;;;9.50;6.90;;;;;;;12.88;87.81;101530.90;108934;278;38358;-70
2023/09/07 04:19:25;;;;;;;10.70;7.80;;;;;;;12.91;88.06;101530.48;108855;278;39236;-71
2023/09/07 04:21:59;;;;;;;7.20;6.50;;;;;;;12.97;88.43;101532.42;108934;278;38295;-72
2023/09/07 04:24:33;;;;;;;8.10;6.50;;;;;;;13.00;88.51;101528.45;108899;278;39430;-71
2023/09/07 04:27:08;;;;;;;8.30;6.40;;;;;;;13.02;88.52;101529.80;108922;278;38443;-71
2023/09/07 04:29:42;;;;;;;10.40;6.30;;;;;;;13.03;88.45;101530.31;108920;278;39460;-70
2023/09/07 04:32:16;;;;;;;10.80;6.40;;;;;;;13.06;88.48;101532.15;108943;278;39889;-70
2023/09/07 04:34:56;;;;;;;8.00;6.90;;;;;;;13.10;88.59;101531.66;108890;278;38423;-70
2023/09/07 04:37:30;;;;;;;10.90;6.70;;;;;;;13.15;88.89;101531.16;108966;278;38466;-71
2023/09/07 04:40:07;;;;;;;10.60;6.60;;;;;;;13.20;89.11;101530.48;108954;278;39939;-70
2023/09/07 04:42:41;;;;;;;8.20;6.60;;;;;;;13.26;89.18;101530.52;108925;278;38266;-72
2023/09/07 04:45:15;;;;;;;9.30;6.40;;;;;;;13.33;89.28;101534.68;108813;278;175177;-72
2023/09/07 04:47:50;;;;;;;9.40;6.70;;;;;;;13.39;89.32;101535.02;108900;278;38946;-70
2023/09/07 04:50:27;;;;;;;10.00;5.90;;;;;;;13.49;89.34;101541.91;108865;278;39644;-71
2023/09/07 04:53:01;;;;;;;12.50;6.90;;;;;;;13.55;89.40;101542.77;108877;278;39534;-70
2023/09/07 04:55:40;;;;;;;10.70;7.20;;;;;;;13.61;89.23;101545.38;108235;278;895907;-70
2023/09/07 04:58:12;;;;;;;;;;;;;;;13.67;89.40;101549.05;108936;278;39349;-70
2023/09/07 05:00:46;;;;;;;11.20;6.20;;;;;;;13.72;89.72;101552.94;108928;278;39907;-72
2023/09/07 05:03:20;;;;;;;9.90;6.70;;;;;;;13.81;89.93;101555.41;108913;278;38763;-72
2023/09/07 05:05:57;;;;;;;9.30;6.10;;;;;;;13.91;90.19;101559.48;108899;278;38457;-73
2023/09/07 05:08:32;;;;;;;9.20;5.90;;;;;;;14.02;90.26;101558.77;108877;278;38806;-72
2023/09/07 05:11:06;;;;;;;13.80;6.90;;;;;;;14.11;90.45;101559.53;108963;278;38980;-71
2023/09/07 05:13:40;;;;;;;14.50;6.70;;;;;;;14.20;90.70;101561.67;108939;278;38252;-70
2023/09/07 05:16:17;;;;;;;19.30;6.90;;;;;;;14.32;90.99;101562.46;108905;278;39535;-73
2023/09/07 05:18:50;;;;;;;13.00;7.20;;;;;;;14.46;90.94;101567.11;108936;278;38511;-72
2023/09/07 05:21:24;;;;;;;21.50;8.20;;;;;;;14.58;91.00;101565.14;108900;278;40115;-72
2023/09/07 05:23:58;;;;;;;15.70;7.90;;;;;;;14.71;91.49;101565.89;108930;278;39113;-72
2023/09/07 05:26:33;;;;;;;25.40;10.80;;;;;;;14.95;94.22;101563.42;108970;278;38231;-72
2023/09/07 05:29:07;;;;;;;27.30;9.90;;;;;;;15.62;98.56;101562.73;108903;278;38437;-71
2023/09/07 05:31:42;;;;;;;29.20;9.90;;;;;;;16.69;100.00;101561.28;108976;278;38170;-73
2023/09/07 05:34:16;;;;;;;23.80;9.40;;;;;;;17.75;98.51;101561.12;108904;278;38215;-71
2023/09/07 05:36:50;;;;;;;26.30;9.20;;;;;;;18.68;93.60;101560.98;108981;278;38449;-73
2023/09/07 05:39:25;;;;;;;28.00;9.40;;;;;;;19.44;88.53;101558.95;108884;278;38276;-72
2023/09/07 05:42:00;;;;;;;27.80;9.50;;;;;;;19.81;83.56;101560.06;108957;278;38366;-72
2023/09/07 05:44:34;;;;;;;21.10;9.90;;;;;;;19.76;80.40;101563.58;108790;278;176537;-72
2023/09/07 05:47:08;;;;;;;35.10;12.40;;;;;;;19.76;79.20;101567.10;108841;278;172057;-71
2023/09/07 05:49:43;;;;;;;26.40;12.30;;;;;;;19.77;78.60;101569.55;108950;278;38190;-71
2023/09/07 05:52:17;;;;;;;32.50;14.90;;;;;;;19.67;77.99;101571.52;108919;278;39747;-72
2023/09/07 05:54:51;;;;;;;22.50;13.30;;;;;;;19.55;77.47;101570.23;108880;278;38485;-71
2023/09/07 05:57:25;;;;;;;20.80;13.70;;;;;;;19.47;77.15;101574.39;108927;278;39617;-74
2023/09/07 05:59:59;;;;;;;20.40;13.30;;;;;;;19.85;81.50;101574.86;108872;278;38996;-75
2023/09/07 06:02:34;;;;;;;20.10;12.50;;;;;;;20.86;81.08;101572.63;108935;278;38254;-72
2023/09/07 06:05:10;;;;;;;18.90;12.40;;;;;;;21.88;77.81;101577.80;108950;278;40068;-72
2023/09/07 06:07:44;;;;;;;20.90;12.90;;;;;;;22.84;74.65;101576.61;108911;272;39109;-73
2023/09/07 06:10:19;;;;;;;21.20;12.40;;;;;;;23.77;70.08;101578.09;108918;278;38562;-73
2023/09/07 06:12:53;;;;;;;24.00;12.30;;;;;;;24.26;66.71;101574.05;108956;278;38155;-73
2023/09/07 06:15:27;;;;;;;31.90;14.90;;;;;;;24.30;64.09;101576.08;108923;278;39532;-73
2023/09/07 06:18:01;;;;;;;30.40;15.20;;;;;;;24.10;62.11;101580.21;108910;278;38699;-72
2023/09/07 06:20:36;;;;;;;29.10;14.70;;;;;;;23.78;61.05;101583.75;108874;278;38525;-76
2023/09/07 06:23:10;;;;;;;46.60;16.70;;;;;;;23.41;61.71;101583.21;108921;278;39602;-73
2023/09/07 06:25:45;;;;;;;34.10;15.30;;;;;;;23.11;61.90;101583.97;108927;278;39788;-73
2023/09/07 06:28:19;;;;;;;28.30;14.10;;;;;;;22.80;62.28;101587.88;108864;278;38465;-73
2023/09/07 06:30:53;;;;;;;21.40;13.70;;;;;;;22.62;62.96;101588.30;108935;278;38495;-73
2023/09/07 06:33:28;;;;;;;21.90;13.30;;;;;;;22.42;63.01;101591.77;108924;278;38160;-71
2023/09/07 06:36:02;;;;;;;25.90;13.60;;;;;;;22.25;63.01;101591.19;108967;278;38741;-71
2023/09/07 06:38:36;;;;;;;21.20;12.80;;;;;;;22.18;63.62;101587.02;108871;278;38434;-71
2023/09/07 06:41:12;;;;;;;25.40;13.50;;;;;;;22.07;63.95;101585.61;108950;278;38763;-71
2023/09/07 06:43:46;;;;;;;25.80;13.50;;;;;;;21.98;64.34;101587.66;108882;278;38150;-71
2023/09/07 06:46:20;;;;;;;20.50;12.00;;;;;;;21.85;63.77;101587.26;108919;278;39815;-72
2023/09/07 06:48:55;;;;;;;22.30;12.90;;;;;;;21.74;64.63;101584.23;108927;278;38724;-71
2023/09/07 06:51:31;;;;;;;34.40;15.00;;;;;;;21.69;65.28;101585.13;108962;278;38458;-69
2023/09/07 06:54:06;;;;;;;39.80;16.00;;;;;;;21.62;65.29;101585.35;108955;278;38138;-69
2023/09/07 06:56:40;;;;;;;41.50;16.50;;;;;;;21.64;65.48;101587.55;108336;275;805685;-68
2023/09/07 06:59:15;;;;;;;46.80;17.00;;;;;;;21.67;65.67;101588.25;108901;278;38184;-69
2023/09/07 07:01:49;;;;;;;42.20;16.40;;;;;;;21.65;65.66;101588.73;108956;278;39448;-72
2023/09/07 07:04:24;;;;;;;39.80;16.80;;;;;;;21.72;66.54;101590.39;108937;278;38176;-71
2023/09/07 07:07:00;;;;;;;55.10;17.10;;;;;;;21.82;66.36;101592.06;109010;279;38647;-71
2023/09/07 07:09:34;;;;;;;48.20;18.60;;;;;;;21.85;65.35;101598.04;108834;278;38220;-71
2023/09/07 07:12:09;;;;;;;57.60;17.50;;;;;;;21.81;65.05;101597.60;108941;278;38450;-72
2023/09/07 07:14:43;;;;;;;33.00;13.30;;;;;;;21.79;65.06;101596.31;108966;278;38491;-72
2023/09/07 07:17:17;;;;;;;44.10;15.00;;;;;;;21.89;65.62;101598.86;108872;278;38307;-72
2023/09/07 07:19:51;;;;;;;38.70;14.00;;;;;;;21.95;65.04;101599.91;108970;278;38182;-72
2023/09/07 07:22:25;;;;;;;38.90;11.90;;;;;;;21.89;64.53;101605.41;108984;278;38952;-72
2023/09/07 07:25:05;;;;;;;30.20;12.60;;;;;;;21.86;64.90;101604.25;108942;278;38847;-73
2023/09/07 07:27:40;;;;;;;35.90;12.80;;;;;;;21.88;65.02;101612.44;108942;278;38781;-72
2023/09/07 07:30:14;;;;;;;29.60;11.90;;;;;;;21.86;64.88;101607.77;108933;278;39502;-72
2023/09/07 07:32:50;;;;;;;29.50;11.60;;;;;;;21.90;65.03;101610.50;108920;278;38431;-70
2023/09/07 07:35:25;;;;;;;24.30;11.00;;;;;;;21.94;64.77;101607.29;108924;278;38211;-72
2023/09/07 07:37:59;;;;;;;23.10;10.50;;;;;;;21.95;63.98;101610.19;108882;278;38625;-72
2023/09/07 07:40:34;;;;;;;20.40;11.30;;;;;;;21.93;64.14;101610.54;108913;278;39021;-72
2023/09/07 07:43:09;;;;;;;19.40;10.30;;;;;;;21.94;64.66;101610.31;108891;278;39737;-72
2023/09/07 07:45:43;;;;;;;19.00;10.20;;;;;;;22.05;65.64;101612.89;108917;278;38256;-71
2023/09/07 07:48:16;;;;;;;17.30;9.90;;;;;;;22.18;64.38;101618.84;108899;278;38205;-71
2023/09/07 07:50:50;;;;;;;20.60;10.20;;;;;;;22.25;64.54;101619.64;108926;278;38276;-71
2023/09/07 07:53:25;;;;;;;25.00;11.00;;;;;;;22.30;63.94;101623.89;108915;278;38169;-71
2023/09/07 07:55:59;;;;;;;23.60;10.50;;;;;;;22.35;64.07;101616.07;108986;278;38607;-71
2023/09/07 07:58:32;;;;;;;16.40;8.80;;;;;;;22.49;64.31;101620.15;108920;278;38608;-71
2023/09/07 08:01:17;;;;;;;18.80;8.70;;;;;;;22.66;64.27;101619.85;108881;278;38746;-72
2023/09/07 08:03:51;;;;;;;15.20;8.70;;;;;;;22.89;63.53;101616.67;108952;278;40035;-72
2023/09/07 08:06:25;;;;;;;18.30;9.10;;;;;;;23.11;63.41;101618.63;108967;278;38345;-71
2023/09/07 08:08:59;;;;;;;13.00;8.10;;;;;;;23.57;63.93;101615.38;108935;278;38825;-71
2023/09/07 08:11:34;;;;;;;20.40;8.40;;;;;;;24.03;61.89;101616.98;108861;278;39039;-72
2023/09/07 08:14:08;;;;;;;22.20;9.20;;;;;;;24.54;60.47;101618.30;108891;278;38199;-72
2023/09/07 08:16:41;;;;;;;41.20;10.90;;;;;;;25.20;58.74;101617.73;108907;278;38471;-73
2023/09/07 08:19:16;;;;;;;21.50;8.50;;;;;;;26.00;57.74;101616.77;108931;278;38337;-72
2023/09/07 08:21:50;;;;;;;16.50;7.60;;;;;;;26.78;55.51;101614.61;108880;278;38166;-72
2023/09/07 08:24:24;;;;;;;15.30;7.10;;;;;;;27.63;55.23;101611.39;108919;278;38454;-73
2023/09/07 08:26:59;;;;;;;9.80;6.40;;;;;;;28.54;53.23;101611.42;108892;278;38601;-74
2023/09/07 08:29:34;;;;;;;17.50;7.70;;;;;;;29.47;50.70;101606.84;108875;278;38154;-74
2023/09/07 08:32:11;;;;;;;21.80;7.20;;;;;;;30.02;47.60;101613.02;108854;278;39787;-73
2023/09/07 08:34:45;;;;;;;14.30;6.10;;;;;;;30.31;46.46;101614.20;108899;278;38716;-74
2023/09/07 08:37:20;;;;;;;19.20;8.00;;;;;;;30.58;45.30;101614.16;108895;278;39588;-74
2023/09/07 08:39:57;;;;;;;12.40;6.60;;;;;;;30.83;44.94;101613.70;108958;278;38336;-74
2023/09/07 08:42:31;;;;;;;12.90;6.30;;;;;;;31.07;44.23;101617.51;108895;278;38291;-74
2023/09/07 08:45:08;;;;;;;14.40;6.70;;;;;;;31.35;43.07;101612.61;108865;278;38153;-74
2023/09/07 08:47:42;;;;;;;15.70;6.30;;;;;;;31.40;42.70;101613.71;108916;278;39065;-76
2023/09/07 08:50:17;;;;;;;12.30;6.30;;;;;;;31.59;42.32;101615.35;108899;278;38149;-76
2023/09/07 08:52:52;;;;;;;7.30;6.00;;;;;;;31.82;42.00;101616.34;108945;278;38152;-76
2023/09/07 08:55:26;;;;;;;9.70;5.80;;;;;;;32.10;40.90;101613.41;108904;278;38174;-76
2023/09/07 08:58:00;;;;;;;14.50;6.70;;;;;;;32.21;39.74;101614.30;108902;278;38185;-76
2023/09/07 09:00:34;;;;;;;17.10;6.40;;;;;;;32.33;40.27;101615.95;108924;278;39669;-75
2023/09/07 09:03:08;;;;;;;12.40;6.00;;;;;;;32.55;40.04;101609.69;108920;278;38194;-75
2023/09/07 09:05:44;;;;;;;9.20;6.10;;;;;;;32.71;39.94;101610.16;108935;278;39513;-75
2023/09/07 09:08:20;;;;;;;13.00;6.00;;;;;;;32.64;38.79;101608.96;108915;278;38300;-74
2023/09/07 09:11:03;;;;;;;11.00;5.30;;;;;;;32.42;38.93;101606.71;108961;278;38435;-76
2023/09/07 09:13:37;;;;;;;14.60;5.60;;;;;;;32.32;38.56;101610.17;108928;278;38435;-76
2023/09/07 09:16:12;;;;;;;13.40;5.50;;;;;;;32.13;38.73;101607.20;108878;278;39796;-74
2023/09/07 09:18:54;;;;;;;12.60;5.10;;;;;;;32.07;38.51;101611.59;108931;278;38472;-74
2023/09/07 09:21:28;;;;;;;14.90;5.10;;;;;;;31.92;38.56;101609.83;108946;278;38261;-76
2023/09/07 09:24:04;;;;;;;10.90;6.00;;;;;;;31.78;38.29;101608.30;108960;278;39341;-76
2023/09/07 09:26:40;;;;;;;18.10;5.90;;;;;;;31.78;38.42;101608.66;108927;278;39684;-75
2023/09/07 09:29:15;;;;;;;9.70;5.20;;;;;;;31.89;38.96;101608.95;108879;278;39548;-75
2023/09/07 09:31:49;;;;;;;11.80;4.90;;;;;;;32.26;38.14;101602.88;108964;278;38847;-74
2023/09/07 09:34:23;;;;;;;9.60;4.30;;;;;;;32.52;37.48;101604.89;108896;278;39540;-74
2023/09/07 09:36:58;;;;;;;12.20;4.30;;;;;;;32.65;37.15;101600.83;108935;278;39599;-75
2023/09/07 09:39:32;;;;;;;9.00;4.80;;;;;;;32.56;37.91;101600.58;108922;278;37187;-75
2023/09/07 09:42:07;;;;;;;9.70;4.70;;;;;;;32.58;37.39;101601.62;108864;278;38503;-74
2023/09/07 09:44:42;;;;;;;12.60;4.80;;;;;;;32.31;37.12;101598.46;108943;278;38321;-74
2023/09/07 09:47:16;;;;;;;14.20;5.00;;;;;;;32.09;37.78;101596.45;108935;278;39399;-77
2023/09/07 09:49:51;;;;;;;12.70;4.60;;;;;;;31.78;38.11;101594.59;108927;278;38195;-77
2023/09/07 09:52:26;;;;;;;7.40;4.20;;;;;;;31.56;38.58;101595.21;108949;278;38680;-75
2023/09/07 09:55:00;;;;;;;12.90;4.50;;;;;;;31.31;38.68;101597.67;108864;279;39351;-75
2023/09/07 09:57:35;;;;;;;7.60;3.80;;;;;;;31.01;39.01;101599.20;108933;278;38425;-75
2023/09/07 10:00:25;;;;;;;6.00;3.40;;;;;;;30.69;39.61;101600.90;108917;278;38688;-75
2023/09/07 10:03:05;;;;;;;9.20;3.30;;;;;;;30.34;39.64;101598.59;108746;278;174301;-74
2023/09/07 10:05:40;;;;;;;22.60;3.60;;;;;;;30.07;39.70;101597.89;108944;278;38727;-74
2023/09/07 10:08:18;;;;;;;10.60;3.60;;;;;;;29.82;39.98;101596.88;108892;278;38447;-74
2023/09/07 10:10:54;;;;;;;6.50;3.20;;;;;;;29.62;39.74;101598.35;108874;278;39162;-74
2023/09/07 10:13:35;;;;;;;7.20;3.20;;;;;;;29.34;39.92;101594.38;108882;278;38370;-74
2023/09/07 10:16:10;;;;;;;7.20;3.50;;;;;;;29.09;40.97;101596.70;108939;278;38551;-75
2023/09/07 10:18:44;;;;;;;12.00;4.10;;;;;;;28.95;41.31;101598.05;108878;278;38387;-74
2023/09/07 10:21:18;;;;;;;7.40;3.90;;;;;;;28.81;41.98;101602.23;108929;278;39304;-75
2023/09/07 10:23:53;;;;;;;5.90;3.60;;;;;;;28.71;41.86;101601.02;108941;278;38351;-75
2023/09/07 10:26:27;;;;;;;6.50;3.50;;;;;;;28.66;42.69;101602.19;108896;278;38234;-75
2023/09/07 10:29:05;;;;;;;3.90;3.50;;;;;;;28.67;42.17;101599.13;108938;278;38450;-75
2023/09/07 10:31:41;;;;;;;7.20;3.40;;;;;;;28.62;42.23;101602.39;108855;278;38789;-74
2023/09/07 10:34:17;;;;;;;8.60;3.40;;;;;;;28.57;42.57;101594.33;108856;278;38160;-74
2023/09/07 10:36:52;;;;;;;6.00;3.90;;;;;;;28.68;43.63;101592.69;108881;278;39621;-74
2023/09/07 10:39:27;;;;;;;8.50;3.60;;;;;;;28.85;43.07;101594.33;108901;278;38197;-74
2023/09/07 10:42:01;;;;;;;19.00;4.40;;;;;;;28.95;42.76;101590.89;108925;278;38481;-74
2023/09/07 10:44:37;;;;;;;12.80;4.00;;;;;;;28.97;42.15;101589.06;108921;278;38236;-74
2023/09/07 10:47:11;;;;;;;4.00;3.10;;;;;;;29.02;41.68;101589.77;108893;278;39197;-74
2023/09/07 10:49:45;;;;;;;6.50;3.20;;;;;;;28.93;40.96;101593.38;108893;278;39343;-74
2023/09/07 10:52:19;;;;;;;11.50;3.30;;;;;;;28.76;41.41;101592.89;108918;278;39804;-74
2023/09/07 10:55:01;;;;;;;6.40;3.00;;;;;;;28.56;41.80;101592.80;108891;278;38355;-75
2023/09/07 10:57:35;;;;;;;5.80;3.40;;;;;;;28.29;41.79;101593.70;108935;278;38330;-74
2023/09/07 11:00:23;;;;;;;5.60;3.30;;;;;;;28.10;42.67;101592.79;108930;278;38360;-74
2023/09/07 11:02:57;;;;;;;4.40;3.20;;;;;;;27.85;42.45;101590.55;108913;278;38468;-74
2023/09/07 11:05:31;;;;;;;4.70;2.80;;;;;;;27.62;42.76;101589.14;109029;278;38462;-74
2023/09/07 11:08:06;;;;;;;5.80;3.00;;;;;;;27.52;44.08;101585.73;108909;278;39924;-75
2023/09/07 11:10:42;;;;;;;3.20;2.90;;;;;;;27.46;43.35;101584.30;109020;278;38624;-74
2023/09/07 11:13:17;;;;;;;6.70;3.30;;;;;;;27.50;43.54;101577.44;108942;278;39526;-73
2023/09/07 11:15:51;;;;;;;7.10;3.40;;;;;;;27.59;43.29;101578.84;108877;278;39045;-73
2023/09/07 11:18:25;;;;;;;6.00;3.10;;;;;;;27.61;43.14;101582.34;108772;278;187785;-74
2023/09/07 11:21:03;;;;;;;3.90;3.10;;;;;;;27.57;42.97;101579.67;108928;278;38131;-73
2023/09/07 11:23:38;;;;;;;5.10;3.20;;;;;;;27.61;43.12;101577.13;108892;278;38812;-72
2023/09/07 11:26:12;;;;;;;11.50;3.10;;;;;;;27.69;43.09;101576.63;108947;278;38528;-74
2023/09/07 11:28:48;;;;;;;10.60;3.20;;;;;;;27.65;42.45;101572.33;108888;278;39336;-72
2023/09/07 11:31:24;;;;;;;3.10;2.70;;;;;;;27.59;43.16;101572.70;108991;278;38181;-72
2023/09/07 11:33:58;;;;;;;3.90;3.10;;;;;;;27.62;43.04;101574.55;108929;278;38156;-73
2023/09/07 11:36:32;;;;;;;5.60;2.80;;;;;;;27.59;43.08;101572.22;109008;278;38443;-74
2023/09/07 11:39:12;;;;;;;4.80;3.10;;;;;;;27.48;42.92;101573.71;108868;278;38837;-74
2023/09/07 11:41:47;;;;;;;5.40;2.90;;;;;;;27.30;43.30;101572.87;108918;278;38193;-73
2023/09/07 11:44:21;;;;;;;5.90;3.20;;;;;;;27.14;43.86;101572.79;108955;278;38157;-73
2023/09/07 11:46:55;;;;;;;7.70;3.40;;;;;;;27.00;43.81;101572.23;108941;278;38359;-73
2023/09/07 11:49:31;;;;;;;7.90;3.10;;;;;;;26.89;43.90;101570.89;108952;278;39340;-73
2023/09/07 11:52:07;;;;;;;10.10;3.20;;;;;;;26.82;43.98;101572.06;108936;278;38763;-73
2023/09/07 11:54:41;;;;;;;3.80;2.80;;;;;;;26.81;44.33;101571.03;108984;278;39274;-73